aviador You're here:

KNFG Decoded Metar

CAMP PENDLETON in CA, USA
Report Time2017-11-24 02:57:00
UTC Time2017-11-24 03:43:18
Flight Rules vfr VFR
WindCalm
Visibility9999 m
Phenomena:N/A
Clouds:N/A
Expected CloudBase > 4,800 ft AGL from Temp-Dew spread
CeilingNone
Temp18°C (ISA +3)
Dew Point06°C (46% RH)
AAT17.1°C
QNH1013 hPa
Density Alt577 ft
Elevation79 ft
Report Wrong Elevation
Raw Report
KNFG 240257Z AUTO 00000KT 10SM CLR 18/06 A2992 RMK AO2 SLP131
T01830056 53012 $=

Extra information for KNFG:More info

Metar Taf Metar & Taf Last 4 Metars F.Rules Stats Wind Profile Meteogram Temp Stats Airport Information Weather charts Add Link Nearby VenuesMetar ALERT Operation Metar Decoded Social comments

AIRNAV info for KNFG